Time;durP1;ratioP1;P1;durP2;ratioP2;P2;SDS_P1;SDS_P2;PMS_P1;PMS_P2;Temp;Humidity;BMP_temperature;BMP_pressure;BME280_temperature;BME280_humidity;BME280_pressure;Samples;Min_cycle;Max_cycle;Signal;HPM_P1;HPM_P2
2022/05/24 00:02:22;;;;;;;36.30;14.55;;;20.10;99.90;;;;;;4766692;30;20116;-88
2022/05/24 00:04:48;;;;;;;27.40;14.35;;;20.10;99.90;;;;;;4770669;30;20100;-88
2022/05/24 00:07:15;;;;;;;28.10;14.25;;;20.10;99.90;;;;;;4785354;30;20478;-88
2022/05/24 00:09:41;;;;;;;32.65;13.85;;;20.10;99.90;;;;;;4770700;30;20044;-88
2022/05/24 00:12:08;;;;;;;37.88;15.18;;;20.10;99.90;;;;;;4770719;30;20092;-88
2022/05/24 00:17:20;;;;;;;32.10;14.93;;;20.10;99.90;;;;;;4785644;30;20034;-88
2022/05/24 00:19:46;;;;;;;32.53;15.63;;;20.10;99.90;;;;;;4770387;30;20031;-88
2022/05/24 00:22:13;;;;;;;30.73;15.45;;;20.10;99.90;;;;;;4770438;30;20042;-88
2022/05/24 00:24:39;;;;;;;37.45;15.65;;;20.10;99.90;;;;;;4770014;30;20044;-88
2022/05/24 00:27:06;;;;;;;29.58;15.25;;;20.10;99.90;;;;;;4753463;30;20040;-88
2022/05/24 00:29:33;;;;;;;30.25;15.90;;;20.10;99.90;;;;;;4755466;30;20054;-88
2022/05/24 00:31:59;;;;;;;37.65;16.17;;;20.10;99.90;;;;;;4740936;30;20011;-90
2022/05/24 00:34:26;;;;;;;30.60;16.08;;;20.10;99.90;;;;;;4750249;30;20482;-89
2022/05/24 00:36:52;;;;;;;32.42;16.02;;;20.10;99.90;;;;;;4740606;30;20102;-88
2022/05/24 00:39:19;;;;;;;33.30;14.95;;;20.10;99.90;;;;;;4740161;30;20130;-89
2022/05/24 00:42:05;;;;;;;42.08;18.50;;;20.00;99.90;;;;;;4740945;30;20035;-89
2022/05/24 00:44:39;;;;;;;34.00;17.40;;;20.10;99.90;;;;;;4741036;30;20051;-88
2022/05/24 00:47:28;;;;;;;35.08;17.13;;;20.10;99.90;;;;;;4740545;30;20036;-88
2022/05/24 00:50:13;;;;;;;40.95;20.15;;;20.00;99.90;;;;;;4736943;30;20483;-88
2022/05/24 00:52:44;;;;;;;35.00;18.02;;;20.00;99.90;;;;;;4752069;30;20127;-89
2022/05/24 00:55:15;;;;;;;34.00;18.88;;;20.00;99.90;;;;;;4752033;30;20052;-90
2022/05/24 00:57:57;;;;;;;38.30;18.38;;;20.00;99.90;;;;;;4751743;30;20430;-88
2022/05/24 01:00:24;;;;;;;32.75;18.27;;;20.00;99.90;;;;;;4751487;30;20553;-88
2022/05/24 01:02:51;;;;;;;39.63;19.27;;;20.00;99.90;;;;;;4751718;30;20032;-88
2022/05/24 01:05:26;;;;;;;37.63;18.15;;;20.00;99.90;;;;;;4738924;30;20040;-88
2022/05/24 01:07:53;;;;;;;31.42;18.08;;;20.00;99.90;;;;;;4740504;30;20044;-88
2022/05/24 01:10:43;;;;;;;35.05;18.73;;;20.00;99.90;;;;;;4755259;30;20406;-87
2022/05/24 01:13:30;;;;;;;36.03;18.70;;;20.00;99.90;;;;;;4740499;29;20534;-88
2022/05/24 01:15:57;;;;;;;36.45;19.50;;;20.00;99.90;;;;;;4741301;30;20087;-88
2022/05/24 01:18:27;;;;;;;38.15;17.13;;;20.10;99.90;;;;;;4740177;30;20043;-88
2022/05/24 01:21:02;;;;;;;38.05;18.17;;;20.10;99.90;;;;;;4740208;30;20048;-88
2022/05/24 01:23:46;;;;;;;41.45;18.63;;;20.00;99.90;;;;;;4740140;30;20101;-89
2022/05/24 01:26:39;;;;;;;41.08;18.90;;;20.00;99.90;;;;;;4743307;30;20540;-88
2022/05/24 01:29:09;;;;;;;30.88;17.98;;;20.00;99.90;;;;;;4758263;30;20130;-89
2022/05/24 01:37:11;;;;;;;41.58;20.13;;;19.90;99.90;;;;;;4773061;30;20039;-88
2022/05/24 01:39:40;;;;;;;39.47;19.92;;;19.90;99.90;;;;;;4743377;30;20031;-88
2022/05/24 01:42:09;;;;;;;38.40;19.27;;;19.90;99.90;;;;;;4743567;30;20036;-88
2022/05/24 01:44:58;;;;;;;35.58;18.25;;;19.90;99.90;;;;;;4743311;30;20050;-88
2022/05/24 01:47:26;;;;;;;31.88;18.75;;;19.80;99.90;;;;;;4743462;30;20051;-88
2022/05/24 01:49:58;;;;;;;33.78;18.08;;;19.90;99.90;;;;;;4743771;30;20032;-88
2022/05/24 01:52:35;;;;;;;42.25;19.10;;;19.80;99.90;;;;;;4743057;30;20570;-88
2022/05/24 01:55:13;;;;;;;28.63;16.88;;;19.80;99.90;;;;;;4743290;30;20063;-89
2022/05/24 01:57:49;;;;;;;37.60;18.00;;;19.80;99.90;;;;;;4757967;30;20115;-88
2022/05/24 02:00:17;;;;;;;36.95;19.65;;;19.80;99.90;;;;;;4757903;30;20039;-88
2022/05/24 02:02:53;;;;;;;37.33;19.35;;;19.80;99.90;;;;;;4757865;30;20036;-89
2022/05/24 02:05:39;;;;;;;30.70;17.60;;;19.70;99.90;;;;;;4757783;30;20039;-88
2022/05/24 02:08:09;;;;;;;37.10;18.27;;;19.70;99.90;;;;;;4757947;30;20031;-88
2022/05/24 02:10:45;;;;;;;31.00;16.95;;;19.70;99.90;;;;;;4743085;30;20406;-89
2022/05/24 02:13:27;;;;;;;38.17;18.20;;;19.70;99.90;;;;;;4757829;30;20044;-88
2022/05/24 02:15:59;;;;;;;31.30;18.17;;;19.70;99.90;;;;;;4757094;30;20036;-89
2022/05/24 02:18:31;;;;;;;32.97;16.15;;;19.70;99.90;;;;;;4742991;30;20063;-88
2022/05/24 02:21:01;;;;;;;28.27;18.02;;;19.70;99.90;;;;;;4757633;30;20509;-89
2022/05/24 02:23:40;;;;;;;33.33;17.70;;;19.60;99.90;;;;;;4741616;30;20036;-90
2022/05/24 02:26:10;;;;;;;35.15;18.67;;;19.60;99.90;;;;;;4766247;30;20067;-89
2022/05/24 02:28:38;;;;;;;39.47;19.70;;;19.60;99.90;;;;;;4757737;30;20380;-90
2022/05/24 02:31:11;;;;;;;36.58;20.42;;;19.60;99.90;;;;;;4772259;30;20036;-91
2022/05/24 02:33:38;;;;;;;38.15;19.08;;;19.60;99.90;;;;;;4772244;30;20093;-91
2022/05/24 02:36:06;;;;;;;38.65;20.65;;;19.60;99.90;;;;;;4787095;30;20610;-90
2022/05/24 02:38:33;;;;;;;41.70;19.58;;;19.60;99.90;;;;;;4757299;30;20122;-90
2022/05/24 02:43:45;;;;;;;35.00;20.38;;;19.70;99.90;;;;;;4787532;30;20490;-89
2022/05/24 02:46:12;;;;;;;46.65;21.83;;;19.80;99.90;;;;;;4772192;30;20036;-90
2022/05/24 02:48:38;;;;;;;40.50;21.10;;;19.80;99.90;;;;;;4772164;30;20047;-91
2022/05/24 02:51:10;;;;;;;39.03;21.13;;;19.80;99.90;;;;;;4772007;30;20036;-90
2022/05/24 02:53:39;;;;;;;36.33;21.23;;;19.80;99.90;;;;;;4771828;30;20131;-90
2022/05/24 02:56:06;;;;;;;44.03;21.48;;;19.90;99.90;;;;;;4786705;30;20430;-89
2022/05/24 02:58:33;;;;;;;30.70;19.17;;;20.00;99.90;;;;;;4771820;30;20479;-88
2022/05/24 03:01:04;;;;;;;39.72;20.20;;;20.00;99.90;;;;;;4786369;30;20031;-88
2022/05/24 03:03:31;;;;;;;34.40;19.95;;;19.90;99.90;;;;;;4772786;30;20036;-89
2022/05/24 03:05:58;;;;;;;43.72;21.40;;;20.00;99.90;;;;;;4771649;30;20035;-88
2022/05/24 03:11:10;;;;;;;38.42;20.20;;;19.90;99.90;;;;;;4786572;30;20078;-89
2022/05/24 03:16:26;;;;;;;35.13;20.08;;;20.00;99.90;;;;;;4786356;30;20442;-88
2022/05/24 03:18:53;;;;;;;36.03;18.92;;;19.90;99.90;;;;;;4756779;30;20039;-88
2022/05/24 03:21:21;;;;;;;40.83;18.88;;;20.00;99.90;;;;;;4771522;30;20114;-89
2022/05/24 03:23:48;;;;;;;31.50;18.40;;;20.00;99.90;;;;;;4771470;30;20039;-90
2022/05/24 03:26:14;;;;;;;41.03;18.95;;;20.00;99.90;;;;;;4758423;30;20053;-89
2022/05/24 03:28:43;;;;;;;40.95;19.90;;;20.00;99.90;;;;;;4738140;30;20406;-89
2022/05/24 03:31:15;;;;;;;39.63;19.00;;;20.00;99.90;;;;;;4738697;30;20028;-89
2022/05/24 03:33:45;;;;;;;29.80;17.52;;;20.00;99.90;;;;;;4737261;30;20102;-90
2022/05/24 03:36:13;;;;;;;39.10;18.85;;;20.00;99.90;;;;;;4739174;30;20062;-90
2022/05/24 03:38:40;;;;;;;37.90;18.13;;;20.00;99.90;;;;;;4737128;30;20032;-89
2022/05/24 03:41:07;;;;;;;34.58;17.30;;;20.00;99.90;;;;;;4739339;30;20032;-89
2022/05/24 03:43:33;;;;;;;36.85;19.98;;;20.10;99.90;;;;;;4738552;30;20043;-89
2022/05/24 03:46:10;;;;;;;37.67;18.60;;;20.10;99.90;;;;;;4738620;30;20036;-89
2022/05/24 03:48:37;;;;;;;38.25;19.17;;;20.10;99.90;;;;;;4738409;30;20043;-89
2022/05/24 03:51:04;;;;;;;30.77;17.80;;;20.10;99.90;;;;;;4738451;30;20506;-89
2022/05/24 03:53:31;;;;;;;30.20;16.60;;;20.10;99.90;;;;;;4724738;30;20127;-90
2022/05/24 03:55:58;;;;;;;32.55;17.58;;;20.20;99.90;;;;;;4738587;30;20115;-90
2022/05/24 03:58:26;;;;;;;26.77;16.52;;;20.10;99.90;;;;;;4738676;30;20040;-90
2022/05/24 04:00:53;;;;;;;28.80;17.83;;;20.20;99.90;;;;;;4738059;30;20028;-89
2022/05/24 04:03:20;;;;;;;34.28;17.48;;;20.30;99.90;;;;;;4738241;30;20060;-90
2022/05/24 04:05:49;;;;;;;30.75;16.90;;;20.30;99.90;;;;;;4738537;30;20032;-89
2022/05/24 04:08:19;;;;;;;34.13;16.77;;;20.30;99.90;;;;;;4738165;30;20035;-88
2022/05/24 04:10:45;;;;;;;30.88;15.52;;;20.30;99.90;;;;;;4737945;30;20100;-88
2022/05/24 04:13:13;;;;;;;33.92;16.17;;;20.30;99.90;;;;;;4738066;30;20043;-89
2022/05/24 04:15:39;;;;;;;29.35;15.40;;;20.30;99.90;;;;;;4738244;30;20082;-90
2022/05/24 04:18:12;;;;;;;30.98;16.90;;;20.40;99.90;;;;;;4738126;30;20107;-90
2022/05/24 04:20:38;;;;;;;24.95;16.33;;;20.50;99.90;;;;;;4737991;30;20047;-89
2022/05/24 04:23:13;;;;;;;26.35;14.15;;;20.60;99.90;;;;;;4737718;30;20044;-89
2022/05/24 04:25:41;;;;;;;27.80;14.55;;;20.70;99.90;;;;;;4733994;30;20113;-88
2022/05/24 04:28:07;;;;;;;29.95;14.43;;;20.90;99.90;;;;;;4767542;30;20039;-88
2022/05/24 04:30:34;;;;;;;24.02;12.95;;;20.90;99.90;;;;;;4752566;30;20040;-89
2022/05/24 04:33:03;;;;;;;29.30;12.15;;;21.00;99.90;;;;;;4738344;30;20517;-90
2022/05/24 04:35:30;;;;;;;26.35;12.15;;;21.10;99.90;;;;;;4738104;30;20040;-90
2022/05/24 04:37:58;;;;;;;24.63;12.68;;;21.30;99.90;;;;;;4752411;30;20028;-90
2022/05/24 04:43:15;;;;;;;27.30;10.38;;;22.00;99.90;;;;;;4744087;30;20048;-90
2022/05/24 04:45:42;;;;;;;20.75;11.60;;;22.40;99.90;;;;;;4737826;30;20047;-90
2022/05/24 04:48:08;;;;;;;19.27;9.55;;;22.60;99.90;;;;;;4737680;30;20128;-90
2022/05/24 04:50:38;;;;;;;20.75;9.40;;;22.70;99.90;;;;;;4738112;30;20473;-90
2022/05/24 04:53:06;;;;;;;22.63;9.82;;;22.80;99.90;;;;;;4738025;30;20040;-89
2022/05/24 04:55:33;;;;;;;16.20;8.43;;;23.20;99.90;;;;;;4752261;30;20036;-90
2022/05/24 04:57:59;;;;;;;21.73;8.65;;;23.50;99.90;;;;;;4752237;30;20040;-90
2022/05/24 05:00:26;;;;;;;19.67;8.40;;;23.70;99.90;;;;;;4737709;30;20024;-89
2022/05/24 05:02:53;;;;;;;23.40;8.80;;;24.10;99.90;;;;;;4752482;30;20079;-89
2022/05/24 05:05:20;;;;;;;14.02;7.57;;;24.60;99.90;;;;;;4737756;30;20155;-90
2022/05/24 05:07:48;;;;;;;17.48;7.68;;;24.90;99.90;;;;;;4738838;30;20032;-93
2022/05/24 05:10:15;;;;;;;16.55;7.00;;;25.30;99.90;;;;;;4752691;30;20032;-93
2022/05/24 05:12:42;;;;;;;12.45;6.82;;;24.70;99.90;;;;;;4752463;30;20036;-93
2022/05/24 05:15:09;;;;;;;15.02;6.65;;;24.70;99.90;;;;;;4752708;30;20139;-90
2022/05/24 05:17:36;;;;;;;14.48;6.85;;;25.10;99.90;;;;;;4736427;30;20119;-90
2022/05/24 05:20:03;;;;;;;17.15;7.70;;;25.00;99.90;;;;;;4736637;30;20043;-90
2022/05/24 05:22:30;;;;;;;17.67;7.20;;;25.70;99.90;;;;;;4736178;30;20038;-89
2022/05/24 05:24:57;;;;;;;11.88;7.00;;;26.10;99.90;;;;;;4746760;30;20138;-89
2022/05/24 05:27:23;;;;;;;15.75;6.13;;;26.70;99.90;;;;;;4753955;30;20039;-89
2022/05/24 05:32:35;;;;;;;13.60;6.43;;;26.60;99.90;;;;;;4753704;30;20027;-91
2022/05/24 05:35:02;;;;;;;13.82;5.93;;;27.10;99.90;;;;;;4738884;30;20027;-88
2022/05/24 05:37:30;;;;;;;14.65;5.97;;;26.90;99.90;;;;;;4758486;30;20040;-89
2022/05/24 05:39:57;;;;;;;12.68;6.28;;;26.80;99.90;;;;;;4739236;30;20031;-90
2022/05/24 05:42:24;;;;;;;12.00;5.88;;;27.20;99.90;;;;;;4761177;30;20031;-90
2022/05/24 05:44:52;;;;;;;13.60;5.63;;;27.60;99.90;;;;;;4739043;30;20032;-88
2022/05/24 05:47:19;;;;;;;12.88;5.85;;;27.80;99.90;;;;;;4761027;30;20028;-89
2022/05/24 05:49:49;;;;;;;10.13;5.78;;;27.10;99.90;;;;;;4750821;30;20566;-92
2022/05/24 05:52:18;;;;;;;9.85;5.55;;;26.70;99.90;;;;;;4749147;30;20049;-89
2022/05/24 05:54:44;;;;;;;10.93;5.35;;;26.80;99.90;;;;;;4744218;30;20036;-87
2022/05/24 05:57:13;;;;;;;12.20;5.50;;;26.80;99.90;;;;;;4740717;30;20031;-88
2022/05/24 05:59:40;;;;;;;14.30;5.78;;;27.30;99.90;;;;;;4743475;30;20271;-86
2022/05/24 06:02:15;;;;;;;12.27;5.80;;;27.50;99.90;;;;;;4738943;30;20035;-87
2022/05/24 06:04:55;;;;;;;9.95;5.07;;;27.40;99.90;;;;;;4737577;30;20135;-91
2022/05/24 06:07:23;;;;;;;12.68;5.32;;;27.40;99.90;;;;;;4738308;30;20064;-88
2022/05/24 06:09:52;;;;;;;12.50;5.57;;;27.90;99.90;;;;;;4725335;30;20050;-89
2022/05/24 06:12:19;;;;;;;9.05;5.07;;;28.10;99.90;;;;;;4739303;30;20592;-87
2022/05/24 06:14:45;;;;;;;8.88;4.45;;;28.60;99.90;;;;;;4739300;30;20135;-87
2022/05/24 06:17:12;;;;;;;11.48;4.72;;;28.70;99.90;;;;;;4739295;30;20067;-88
2022/05/24 06:19:39;;;;;;;10.73;4.60;;;28.60;99.90;;;;;;4740195;30;20094;-87
2022/05/24 06:22:06;;;;;;;11.30;5.07;;;27.00;99.90;;;;;;4757950;30;20040;-88
2022/05/24 06:24:44;;;;;;;11.45;5.05;;;26.70;99.90;;;;;;4757393;30;20047;-89
2022/05/24 06:27:12;;;;;;;12.18;4.80;;;26.40;99.90;;;;;;4740054;30;20051;-90
2022/05/24 06:29:38;;;;;;;9.90;4.35;;;26.20;99.90;;;;;;4725255;30;20043;-91
2022/05/24 06:32:07;;;;;;;15.73;4.97;;;26.90;99.90;;;;;;4739600;30;20086;-89
2022/05/24 06:34:34;;;;;;;11.48;5.07;;;28.00;99.90;;;;;;4739878;30;20043;-87
2022/05/24 06:37:00;;;;;;;12.82;4.55;;;28.10;99.90;;;;;;4739952;30;20119;-87
2022/05/24 06:39:27;;;;;;;9.32;4.03;;;28.40;99.90;;;;;;4740314;30;20487;-88
2022/05/24 06:41:53;;;;;;;10.07;4.40;;;28.70;99.90;;;;;;4739788;30;20036;-89
2022/05/24 06:44:25;;;;;;;9.45;4.18;;;28.40;99.90;;;;;;4740234;30;20040;-89
2022/05/24 06:46:55;;;;;;;15.18;6.15;;;28.20;99.90;;;;;;4739968;30;20062;-87
2022/05/24 06:49:21;;;;;;;8.57;4.18;;;27.90;99.90;;;;;;4739613;30;20432;-87
2022/05/24 06:51:47;;;;;;;10.45;4.85;;;28.60;99.90;;;;;;4724850;30;20036;-87
2022/05/24 06:54:13;;;;;;;11.27;4.65;;;28.80;99.90;;;;;;4739710;30;20040;-90
2022/05/24 06:56:39;;;;;;;14.68;5.63;;;29.10;99.90;;;;;;4739335;30;20035;-91
2022/05/24 07:04:38;;;;;;;11.65;4.32;;;28.30;99.90;;;;;;4739448;30;20127;-89
2022/05/24 07:07:05;;;;;;;9.07;4.63;;;29.40;99.90;;;;;;4739219;30;20032;-87
2022/05/24 07:09:32;;;;;;;14.48;5.18;;;29.40;99.90;;;;;;4724746;30;20036;-87
2022/05/24 07:12:00;;;;;;;14.20;5.40;;;29.60;99.90;;;;;;4724181;30;20028;-86
2022/05/24 07:14:26;;;;;;;15.32;5.85;;;29.00;99.90;;;;;;4738701;30;20044;-88
2022/05/24 07:16:52;;;;;;;18.65;5.78;;;28.80;99.90;;;;;;4738707;30;20043;-85
2022/05/24 07:19:20;;;;;;;10.57;5.22;;;29.30;99.90;;;;;;4739100;30;20032;-86
2022/05/24 07:21:46;;;;;;;13.63;6.13;;;29.40;99.90;;;;;;4724457;30;20569;-87
2022/05/24 07:24:15;;;;;;;14.27;6.75;;;28.60;99.90;;;;;;4738777;30;20113;-86
2022/05/24 07:26:43;;;;;;;15.68;6.90;;;28.40;99.90;;;;;;4749294;30;20052;-88
2022/05/24 07:29:09;;;;;;;12.80;6.60;;;28.90;99.90;;;;;;4768306;30;20100;-86
2022/05/24 07:31:38;;;;;;;8.95;4.47;;;29.60;99.90;;;;;;4753326;30;20055;-86
2022/05/24 07:34:06;;;;;;;15.02;6.43;;;29.80;99.90;;;;;;4753473;30;20040;-87
2022/05/24 07:36:32;;;;;;;13.45;5.07;;;29.90;99.90;;;;;;4753361;30;20024;-86
2022/05/24 07:38:59;;;;;;;9.57;4.75;;;29.60;99.90;;;;;;4753213;30;20055;-87
2022/05/24 07:46:56;;;;;;;16.35;5.22;;;30.40;99.90;;;;;;4767814;30;20067;-88
2022/05/24 07:49:23;;;;;;;12.45;6.78;;;30.40;99.90;;;;;;4753086;30;20032;-87
2022/05/24 07:51:49;;;;;;;12.25;4.25;;;30.10;99.90;;;;;;4752972;30;20117;-87
2022/05/24 07:54:19;;;;;;;14.15;4.10;;;30.50;99.90;;;;;;4767714;30;20066;-86
2022/05/24 07:56:45;;;;;;;13.50;4.47;;;31.00;99.90;;;;;;4752916;30;20398;-87
2022/05/24 07:59:12;;;;;;;12.40;4.05;;;29.70;99.90;;;;;;4752998;30;20499;-89
2022/05/24 08:01:49;;;;;;;16.63;6.03;;;28.90;99.90;;;;;;4763023;30;20035;-90
2022/05/24 08:04:20;;;;;;;12.75;5.95;;;28.20;99.90;;;;;;4780696;30;20059;-90
2022/05/24 08:06:48;;;;;;;12.52;4.22;;;28.70;99.90;;;;;;4759865;30;20025;-91
2022/05/24 08:09:16;;;;;;;13.63;5.22;;;27.60;99.90;;;;;;4785732;30;20043;-92
2022/05/24 08:11:44;;;;;;;11.60;4.60;;;27.00;99.90;;;;;;4742780;30;20140;-91
2022/05/24 08:14:13;;;;;;;11.48;4.30;;;27.20;99.90;;;;;;4782976;30;20048;-90
2022/05/24 08:16:40;;;;;;;16.08;6.40;;;26.90;99.90;;;;;;4771530;30;20036;-92
2022/05/24 08:19:09;;;;;;;12.48;4.20;;;27.10;99.90;;;;;;4769831;30;20095;-93
2022/05/24 08:21:37;;;;;;;10.68;5.30;;;26.90;99.90;;;;;;4785405;30;20035;-90
2022/05/24 08:24:04;;;;;;;12.32;4.47;;;26.50;99.90;;;;;;4770128;30;20135;-91
2022/05/24 08:26:31;;;;;;;10.65;4.35;;;26.40;99.90;;;;;;4781635;30;20391;-91
2022/05/24 08:28:59;;;;;;;19.90;6.45;;;26.50;99.90;;;;;;4798475;30;20043;-91
2022/05/24 08:31:26;;;;;;;12.40;4.82;;;26.70;99.90;;;;;;4780471;30;20035;-89
2022/05/24 08:33:52;;;;;;;9.02;5.35;;;27.00;99.90;;;;;;4778615;30;20043;-91
2022/05/24 08:36:19;;;;;;;13.05;4.40;;;26.90;99.90;;;;;;4780687;30;20040;-91
2022/05/24 08:38:45;;;;;;;11.80;4.10;;;27.40;99.90;;;;;;4780440;30;20035;-91
2022/05/24 08:41:51;;;;;;;11.52;5.07;;;27.50;99.90;;;;;;4779776;30;20032;-92
2022/05/24 08:50:07;;;;;;;12.18;4.50;;;27.30;99.90;;;;;;4797436;30;20050;-90
2022/05/24 08:52:40;;;;;;;10.07;4.65;;;27.00;99.90;;;;;;4767787;30;20130;-92
2022/05/24 08:55:11;;;;;;;11.50;5.07;;;26.80;99.90;;;;;;4782895;30;20070;-91
2022/05/24 08:57:52;;;;;;;11.05;4.28;;;27.40;99.90;;;;;;4770464;30;20541;-92
2022/05/24 09:00:40;;;;;;;17.00;5.97;;;27.90;99.90;;;;;;4770445;30;20032;-90
2022/05/24 09:03:09;;;;;;;13.07;5.65;;;27.30;99.90;;;;;;4768725;30;20036;-91
2022/05/24 09:05:45;;;;;;;14.25;4.68;;;27.10;99.90;;;;;;4767707;30;20498;-90
2022/05/24 09:09:02;;;;;;;12.23;5.43;;;27.10;99.90;;;;;;4764408;30;20044;-92
2022/05/24 09:11:50;;;;;;;15.10;4.97;;;26.80;99.90;;;;;;4690717;30;20041;-90
2022/05/24 09:14:29;;;;;;;16.50;4.70;;;27.30;99.90;;;;;;4685097;30;20042;-93
2022/05/24 09:17:15;;;;;;;14.77;4.75;;;27.90;99.90;;;;;;4689962;30;20065;-91
2022/05/24 09:19:45;;;;;;;12.43;4.75;;;27.40;99.90;;;;;;4707459;30;20041;-92
2022/05/24 09:22:12;;;;;;;10.05;4.13;;;26.80;99.90;;;;;;4698202;30;20045;-91
2022/05/24 09:24:44;;;;;;;7.22;4.00;;;26.10;99.90;;;;;;4698110;30;20061;-90
2022/05/24 09:27:18;;;;;;;9.40;4.63;;;25.70;99.90;;;;;;4686301;30;20065;-91
2022/05/24 09:30:25;;;;;;;12.10;5.18;;;26.20;99.90;;;;;;4685098;30;20053;-92
2022/05/24 09:33:15;;;;;;;11.60;5.07;;;26.50;99.90;;;;;;4701287;30;20078;-90
2022/05/24 09:36:11;;;;;;;13.65;5.00;;;26.00;99.90;;;;;;4719902;30;20053;-90
2022/05/24 09:38:40;;;;;;;14.50;4.43;;;26.00;99.90;;;;;;4688295;30;20071;-91
2022/05/24 09:41:22;;;;;;;12.02;4.90;;;26.00;99.90;;;;;;4695984;30;20069;-91
2022/05/24 09:44:17;;;;;;;15.43;4.50;;;26.10;99.90;;;;;;4695237;30;20137;-89
2022/05/24 09:46:46;;;;;;;13.82;5.50;;;26.80;99.90;;;;;;4652916;30;20054;-90
2022/05/24 09:49:33;;;;;;;11.05;4.72;;;26.70;99.90;;;;;;4710685;30;20064;-90
2022/05/24 09:52:14;;;;;;;13.30;5.03;;;26.50;99.90;;;;;;4693258;30;20048;-91
2022/05/24 09:55:22;;;;;;;13.13;4.10;;;26.70;99.90;;;;;;4695456;30;20108;-91
2022/05/24 09:57:55;;;;;;;14.35;5.10;;;26.90;99.90;;;;;;4695406;30;20038;-91
2022/05/24 10:00:23;;;;;;;9.88;4.45;;;26.90;99.90;;;;;;4665449;30;20136;-90
2022/05/24 10:03:13;;;;;;;13.82;4.68;;;26.60;99.90;;;;;;4708729;30;20030;-91
2022/05/24 10:05:59;;;;;;;11.93;4.72;;;27.00;99.90;;;;;;4721179;30;20092;-89
2022/05/24 10:08:41;;;;;;;9.63;4.75;;;26.60;99.90;;;;;;4724489;30;20045;-90
2022/05/24 10:12:02;;;;;;;8.68;4.30;;;26.60;99.90;;;;;;4686532;30;20077;-90
2022/05/24 10:15:13;;;;;;;10.73;4.40;;;26.70;99.90;;;;;;4939791;24;20063;-88
2022/05/24 10:17:58;;;;;;;12.30;4.90;;;27.00;99.90;;;;;;4746878;30;20043;-90
2022/05/24 10:23:21;;;;;;;9.35;4.05;;;26.20;99.90;;;;;;5157138;24;20055;-90
2022/05/24 10:28:39;;;;;;;14.50;4.63;;;26.10;99.90;;;;;;5443766;24;20114;-90
2022/05/24 10:41:54;;;;;;;9.88;3.83;;;25.80;99.90;;;;;;4795353;24;20081;-87
2022/05/24 10:44:44;;;;;;;14.23;5.13;;;26.10;99.90;;;;;;4783869;30;20050;-89
2022/05/24 10:47:39;;;;;;;15.68;4.80;;;25.80;99.90;;;;;;4763068;30;20047;-89
2022/05/24 10:50:20;;;;;;;13.32;4.30;;;25.90;99.90;;;;;;4741673;30;20107;-89
2022/05/24 10:53:00;;;;;;;13.02;4.40;;;26.30;99.90;;;;;;4741670;30;20651;-89
2022/05/24 10:55:57;;;;;;;16.95;4.72;;;26.30;99.90;;;;;;4744087;30;20063;-90
2022/05/24 10:58:25;;;;;;;14.55;4.78;;;25.70;99.90;;;;;;4735622;30;20037;-90
2022/05/24 11:01:00;;;;;;;11.63;5.28;;;25.80;99.90;;;;;;5105238;24;20051;-89
2022/05/24 11:03:35;;;;;;;11.93;4.68;;;25.60;99.90;;;;;;4779018;29;20050;-88
2022/05/24 11:06:28;;;;;;;11.48;4.43;;;26.00;99.90;;;;;;4778809;29;20574;-90
2022/05/24 11:09:10;;;;;;;9.98;4.22;;;25.60;99.90;;;;;;4770455;29;20050;-88
2022/05/24 11:11:53;;;;;;;12.75;4.05;;;25.90;99.90;;;;;;4760253;30;20045;-88
2022/05/24 11:14:43;;;;;;;11.40;4.15;;;26.50;99.90;;;;;;4774811;30;20039;-88
2022/05/24 11:17:10;;;;;;;11.88;4.18;;;26.90;99.90;;;;;;4759849;30;20035;-89
2022/05/24 11:19:42;;;;;;;11.40;4.40;;;26.80;99.90;;;;;;4774648;30;20039;-90
2022/05/24 11:22:41;;;;;;;11.07;4.60;;;26.30;99.90;;;;;;4783867;30;20074;-91
2022/05/24 11:25:21;;;;;;;11.18;4.50;;;26.10;99.90;;;;;;4732387;30;20052;-90
2022/05/24 11:30:39;;;;;;;7.32;3.90;;;26.50;99.90;;;;;;5167657;24;20417;-92
2022/05/24 11:33:05;;;;;;;11.30;4.60;;;26.10;99.90;;;;;;4774491;30;20047;-92
2022/05/24 11:35:41;;;;;;;12.27;3.88;;;26.00;99.90;;;;;;4760399;30;20099;-92
2022/05/24 11:38:35;;;;;;;9.50;4.45;;;26.20;99.90;;;;;;4761969;30;20122;-91
2022/05/24 11:41:31;;;;;;;12.10;4.00;;;26.00;99.90;;;;;;4762937;30;20035;-91
2022/05/24 11:44:03;;;;;;;13.10;4.70;;;25.90;99.90;;;;;;4761820;30;20054;-91
2022/05/24 11:46:37;;;;;;;10.32;4.03;;;25.80;99.90;;;;;;4762114;30;20036;-93
2022/05/24 11:49:31;;;;;;;16.50;4.15;;;26.10;99.90;;;;;;4763740;30;20035;-92
2022/05/24 11:52:01;;;;;;;9.27;4.30;;;26.20;99.90;;;;;;4777496;29;20035;-92
2022/05/24 11:54:31;;;;;;;12.73;4.55;;;26.50;99.90;;;;;;4775718;30;20031;-91
2022/05/24 11:57:07;;;;;;;10.70;4.30;;;26.50;99.90;;;;;;4760303;30;20031;-91
2022/05/24 11:59:43;;;;;;;14.77;4.63;;;26.20;99.90;;;;;;4759134;30;20044;-91
2022/05/24 12:02:24;;;;;;;13.20;4.80;;;25.80;99.90;;;;;;4759135;30;20047;-90
2022/05/24 12:08:04;;;;;;;11.07;4.25;;;25.90;99.90;;;;;;4773625;30;20128;-90
2022/05/24 12:10:46;;;;;;;8.45;4.28;;;25.70;99.90;;;;;;4758871;30;20040;-90
2022/05/24 12:14:09;;;;;;;7.32;4.35;;;25.90;99.90;;;;;;4758594;30;20043;-90
2022/05/24 12:16:45;;;;;;;12.13;4.57;;;26.10;99.90;;;;;;4699770;30;20042;-90
2022/05/24 12:19:40;;;;;;;11.30;4.63;;;25.80;99.90;;;;;;4686667;30;20043;-89
2022/05/24 12:22:10;;;;;;;13.50;4.57;;;25.70;99.90;;;;;;4778966;29;20036;-92
2022/05/24 12:24:36;;;;;;;10.80;4.25;;;26.10;99.90;;;;;;4773938;30;20106;-91
2022/05/24 12:27:25;;;;;;;15.50;4.75;;;25.90;99.90;;;;;;4760119;30;20035;-91
2022/05/24 12:30:17;;;;;;;12.75;4.05;;;25.80;99.90;;;;;;4773139;30;20573;-91
2022/05/24 12:32:45;;;;;;;8.93;4.35;;;26.00;99.90;;;;;;4722941;30;20506;-92
2022/05/24 12:35:15;;;;;;;7.93;3.88;;;26.30;99.90;;;;;;4773371;30;20086;-90
2022/05/24 12:37:55;;;;;;;11.85;4.32;;;26.20;99.90;;;;;;4758685;30;20100;-91
2022/05/24 12:40:30;;;;;;;15.57;4.35;;;26.30;99.90;;;;;;4773349;30;20035;-91
2022/05/24 12:43:13;;;;;;;9.55;3.72;;;26.30;99.90;;;;;;4758318;29;20039;-90
2022/05/24 12:45:45;;;;;;;9.40;3.83;;;26.10;99.90;;;;;;4773234;30;20510;-91
2022/05/24 12:48:31;;;;;;;12.10;3.75;;;26.10;99.90;;;;;;4758735;30;20119;-91
2022/05/24 12:51:05;;;;;;;7.22;3.60;;;26.40;99.90;;;;;;4758355;30;20070;-91
2022/05/24 12:53:32;;;;;;;14.93;4.28;;;26.80;99.90;;;;;;4773138;30;20115;-92
2022/05/24 12:56:05;;;;;;;11.65;4.05;;;26.50;99.90;;;;;;4758249;30;20031;-91
2022/05/24 12:58:41;;;;;;;12.20;3.87;;;26.20;99.90;;;;;;4758684;30;20046;-91
2022/05/24 13:01:25;;;;;;;6.45;3.63;;;26.20;99.90;;;;;;4776563;30;20305;-92
2022/05/24 13:04:06;;;;;;;11.52;4.63;;;26.00;99.90;;;;;;4761857;30;20051;-91
2022/05/24 13:06:45;;;;;;;13.20;3.95;;;26.30;99.90;;;;;;4776812;30;20039;-91
2022/05/24 13:09:28;;;;;;;11.35;4.00;;;26.60;99.90;;;;;;4762101;30;20528;-92
2022/05/24 13:12:01;;;;;;;11.88;3.75;;;26.50;99.90;;;;;;4740837;30;20044;-91
2022/05/24 13:14:40;;;;;;;13.82;4.28;;;26.50;99.90;;;;;;4755282;30;20040;-91
2022/05/24 13:17:10;;;;;;;11.40;3.38;;;26.50;99.90;;;;;;4755825;30;20571;-91
2022/05/24 13:20:06;;;;;;;11.50;3.35;;;26.20;99.90;;;;;;4755592;30;20046;-91
2022/05/24 13:22:55;;;;;;;11.88;4.10;;;25.90;99.90;;;;;;4724893;30;20048;-90
2022/05/24 13:25:43;;;;;;;11.20;3.60;;;25.90;99.90;;;;;;4754907;30;20048;-92
2022/05/24 13:28:11;;;;;;;9.88;4.00;;;26.20;99.90;;;;;;4740295;30;20036;-91
2022/05/24 13:33:58;;;;;;;17.35;4.63;;;25.90;99.90;;;;;;4754959;30;20062;-92
2022/05/24 13:36:31;;;;;;;10.90;3.40;;;26.10;99.90;;;;;;4755116;30;20044;-92
2022/05/24 13:39:04;;;;;;;9.80;3.20;;;25.80;99.90;;;;;;4754798;30;20044;-92
2022/05/24 13:41:40;;;;;;;14.55;3.40;;;25.60;99.90;;;;;;4740469;30;20039;-92
2022/05/24 13:44:29;;;;;;;16.75;3.75;;;25.40;99.90;;;;;;4739914;30;20097;-92
2022/05/24 13:47:03;;;;;;;12.93;3.90;;;25.70;99.90;;;;;;4754413;30;20074;-93
2022/05/24 13:49:38;;;;;;;9.47;3.77;;;25.50;99.90;;;;;;4768327;30;20044;-91
2022/05/24 13:52:28;;;;;;;10.35;3.47;;;25.50;99.90;;;;;;4761374;30;20100;-91
2022/05/24 13:55:18;;;;;;;8.60;3.55;;;25.80;99.90;;;;;;4776149;30;20116;-91
2022/05/24 13:58:08;;;;;;;13.60;3.83;;;25.90;99.90;;;;;;4760923;30;20121;-93
2022/05/24 14:00:38;;;;;;;11.45;3.70;;;26.10;99.90;;;;;;4760948;30;20035;-92
2022/05/24 14:03:14;;;;;;;7.82;3.38;;;26.30;99.90;;;;;;4775655;30;20263;-91
2022/05/24 14:05:42;;;;;;;10.20;3.85;;;26.10;99.90;;;;;;4761002;30;20043;-91
2022/05/24 14:08:09;;;;;;;12.82;3.72;;;26.00;99.90;;;;;;4760826;30;20038;-92
2022/05/24 14:10:38;;;;;;;9.48;3.63;;;25.80;99.90;;;;;;4760603;29;20050;-91
2022/05/24 14:13:08;;;;;;;11.20;3.30;;;25.70;99.90;;;;;;4760419;30;20031;-93